sensor_id;sensor_type;location;lat;lon;timestamp;temperature;humidity
55036;DHT22;40936;53.008;6.556;2022-08-21T00:00:18;16.40;99.90
55036;DHT22;40936;53.008;6.556;2022-08-21T00:02:54;16.30;99.90
55036;DHT22;40936;53.008;6.556;2022-08-21T00:05:21;16.30;99.90
55036;DHT22;40936;53.008;6.556;2022-08-21T00:07:47;16.30;99.90
55036;DHT22;40936;53.008;6.556;2022-08-21T00:10:14;16.20;99.90
55036;DHT22;40936;53.008;6.556;2022-08-21T00:12:41;16.10;99.90
55036;DHT22;40936;53.008;6.556;2022-08-21T00:15:10;16.00;99.90
55036;DHT22;40936;53.008;6.556;2022-08-21T00:17:36;16.00;99.90
55036;DHT22;40936;53.008;6.556;2022-08-21T00:20:05;15.90;99.90
55036;DHT22;40936;53.008;6.556;2022-08-21T00:22:31;15.90;99.90
55036;DHT22;40936;53.008;6.556;2022-08-21T00:24:57;15.80;99.90
55036;DHT22;40936;53.008;6.556;2022-08-21T00:27:23;15.80;99.90
55036;DHT22;40936;53.008;6.556;2022-08-21T00:29:49;15.70;99.90
55036;DHT22;40936;53.008;6.556;2022-08-21T00:32:20;15.60;99.90
55036;DHT22;40936;53.008;6.556;2022-08-21T00:34:46;15.60;1.00
55036;DHT22;40936;53.008;6.556;2022-08-21T00:37:12;15.60;1.00
55036;DHT22;40936;53.008;6.556;2022-08-21T00:39:37;15.50;1.00
55036;DHT22;40936;53.008;6.556;2022-08-21T00:42:04;15.50;1.00
55036;DHT22;40936;53.008;6.556;2022-08-21T00:44:29;15.40;1.00
55036;DHT22;40936;53.008;6.556;2022-08-21T00:46:56;15.40;1.00
55036;DHT22;40936;53.008;6.556;2022-08-21T00:49:22;15.40;1.00
55036;DHT22;40936;53.008;6.556;2022-08-21T00:51:57;15.40;1.00
55036;DHT22;40936;53.008;6.556;2022-08-21T00:54:26;15.30;1.00
55036;DHT22;40936;53.008;6.556;2022-08-21T00:57:16;15.30;1.00
55036;DHT22;40936;53.008;6.556;2022-08-21T00:59:44;15.30;1.00
55036;DHT22;40936;53.008;6.556;2022-08-21T01:02:12;15.20;1.00
55036;DHT22;40936;53.008;6.556;2022-08-21T01:04:38;15.20;1.00
55036;DHT22;40936;53.008;6.556;2022-08-21T01:07:04;15.10;1.00
55036;DHT22;40936;53.008;6.556;2022-08-21T01:09:30;15.10;1.00
55036;DHT22;40936;53.008;6.556;2022-08-21T01:11:56;15.10;1.00
55036;DHT22;40936;53.008;6.556;2022-08-21T01:14:21;15.00;1.00
55036;DHT22;40936;53.008;6.556;2022-08-21T01:16:50;15.10;1.00
55036;DHT22;40936;53.008;6.556;2022-08-21T01:19:18;15.00;1.00
55036;DHT22;40936;53.008;6.556;2022-08-21T01:21:44;15.00;1.00
55036;DHT22;40936;53.008;6.556;2022-08-21T01:24:11;15.00;1.00
55036;DHT22;40936;53.008;6.556;2022-08-21T01:26:37;14.90;1.00
55036;DHT22;40936;53.008;6.556;2022-08-21T01:31:47;14.90;15.10
55036;DHT22;40936;53.008;6.556;2022-08-21T01:34:13;14.90;14.70
55036;DHT22;40936;53.008;6.556;2022-08-21T01:36:39;14.90;16.80
55036;DHT22;40936;53.008;6.556;2022-08-21T01:39:05;14.90;15.80
55036;DHT22;40936;53.008;6.556;2022-08-21T01:41:31;14.90;37.70
55036;DHT22;40936;53.008;6.556;2022-08-21T01:43:56;14.90;32.30
55036;DHT22;40936;53.008;6.556;2022-08-21T01:46:22;14.90;34.10
55036;DHT22;40936;53.008;6.556;2022-08-21T01:48:48;14.90;35.10
55036;DHT22;40936;53.008;6.556;2022-08-21T01:51:14;14.90;71.60
55036;DHT22;40936;53.008;6.556;2022-08-21T01:53:40;14.90;97.20
55036;DHT22;40936;53.008;6.556;2022-08-21T01:56:08;14.90;95.40
55036;DHT22;40936;53.008;6.556;2022-08-21T01:58:35;14.90;91.40
55036;DHT22;40936;53.008;6.556;2022-08-21T02:01:01;14.90;99.90
55036;DHT22;40936;53.008;6.556;2022-08-21T02:03:30;15.00;99.90
55036;DHT22;40936;53.008;6.556;2022-08-21T02:05:56;15.00;99.90
55036;DHT22;40936;53.008;6.556;2022-08-21T02:08:22;15.00;99.90
55036;DHT22;40936;53.008;6.556;2022-08-21T02:10:50;15.10;99.90
55036;DHT22;40936;53.008;6.556;2022-08-21T02:13:16;15.10;99.90
55036;DHT22;40936;53.008;6.556;2022-08-21T02:15:42;15.20;99.90
55036;DHT22;40936;53.008;6.556;2022-08-21T02:18:08;15.20;99.90
55036;DHT22;40936;53.008;6.556;2022-08-21T02:20:38;15.20;99.90
55036;DHT22;40936;53.008;6.556;2022-08-21T02:23:05;15.10;99.90
55036;DHT22;40936;53.008;6.556;2022-08-21T02:25:32;15.10;99.90
55036;DHT22;40936;53.008;6.556;2022-08-21T02:27:58;15.10;99.90
55036;DHT22;40936;53.008;6.556;2022-08-21T02:30:31;15.00;99.90
55036;DHT22;40936;53.008;6.556;2022-08-21T02:32:56;15.00;99.90
55036;DHT22;40936;53.008;6.556;2022-08-21T02:35:22;15.00;99.90
55036;DHT22;40936;53.008;6.556;2022-08-21T02:37:51;15.00;99.90
55036;DHT22;40936;53.008;6.556;2022-08-21T02:40:20;14.90;99.90
55036;DHT22;40936;53.008;6.556;2022-08-21T02:42:46;14.90;99.90
55036;DHT22;40936;53.008;6.556;2022-08-21T02:45:13;14.90;99.90
55036;DHT22;40936;53.008;6.556;2022-08-21T02:47:39;14.80;99.90
55036;DHT22;40936;53.008;6.556;2022-08-21T02:50:06;14.80;99.90
55036;DHT22;40936;53.008;6.556;2022-08-21T02:52:33;14.80;99.90
55036;DHT22;40936;53.008;6.556;2022-08-21T02:54:59;14.80;99.90
55036;DHT22;40936;53.008;6.556;2022-08-21T02:57:25;14.80;99.90
55036;DHT22;40936;53.008;6.556;2022-08-21T02:59:50;14.80;99.90
55036;DHT22;40936;53.008;6.556;2022-08-21T03:02:16;14.70;99.90
55036;DHT22;40936;53.008;6.556;2022-08-21T03:04:42;14.80;99.90
55036;DHT22;40936;53.008;6.556;2022-08-21T03:07:07;14.80;99.90
55036;DHT22;40936;53.008;6.556;2022-08-21T03:09:33;14.80;99.90
55036;DHT22;40936;53.008;6.556;2022-08-21T03:11:59;14.80;99.90
55036;DHT22;40936;53.008;6.556;2022-08-21T03:14:25;14.80;99.90
55036;DHT22;40936;53.008;6.556;2022-08-21T03:16:51;14.80;99.90
55036;DHT22;40936;53.008;6.556;2022-08-21T03:19:16;14.70;99.90
55036;DHT22;40936;53.008;6.556;2022-08-21T03:21:42;14.90;99.90
55036;DHT22;40936;53.008;6.556;2022-08-21T03:24:08;14.70;99.90
55036;DHT22;40936;53.008;6.556;2022-08-21T03:26:34;14.70;99.90
55036;DHT22;40936;53.008;6.556;2022-08-21T03:29:00;14.70;99.90
55036;DHT22;40936;53.008;6.556;2022-08-21T03:31:26;15.30;99.90
55036;DHT22;40936;53.008;6.556;2022-08-21T03:33:57;14.70;99.90
55036;DHT22;40936;53.008;6.556;2022-08-21T03:36:23;14.80;99.90
55036;DHT22;40936;53.008;6.556;2022-08-21T03:38:49;14.80;99.90
55036;DHT22;40936;53.008;6.556;2022-08-21T03:41:15;14.80;89.70
55036;DHT22;40936;53.008;6.556;2022-08-21T03:43:40;14.80;75.40
55036;DHT22;40936;53.008;6.556;2022-08-21T03:46:07;14.90;99.10
55036;DHT22;40936;53.008;6.556;2022-08-21T03:48:34;14.80;35.00
55036;DHT22;40936;53.008;6.556;2022-08-21T03:51:00;14.80;75.20
55036;DHT22;40936;53.008;6.556;2022-08-21T03:53:26;14.80;68.30
55036;DHT22;40936;53.008;6.556;2022-08-21T03:55:53;14.80;41.70
55036;DHT22;40936;53.008;6.556;2022-08-21T03:58:21;14.80;55.80
55036;DHT22;40936;53.008;6.556;2022-08-21T04:00:49;14.70;59.70
55036;DHT22;40936;53.008;6.556;2022-08-21T04:03:16;14.70;83.60
55036;DHT22;40936;53.008;6.556;2022-08-21T04:05:42;14.70;97.30
55036;DHT22;40936;53.008;6.556;2022-08-21T04:08:10;14.70;99.20
55036;DHT22;40936;53.008;6.556;2022-08-21T04:10:38;14.70;99.90
55036;DHT22;40936;53.008;6.556;2022-08-21T04:13:04;14.70;98.40
55036;DHT22;40936;53.008;6.556;2022-08-21T04:15:30;14.70;74.00
55036;DHT22;40936;53.008;6.556;2022-08-21T04:17:55;14.70;82.70
55036;DHT22;40936;53.008;6.556;2022-08-21T04:20:22;15.60;60.20
55036;DHT22;40936;53.008;6.556;2022-08-21T04:22:48;14.70;27.00
55036;DHT22;40936;53.008;6.556;2022-08-21T04:25:16;15.80;37.20
55036;DHT22;40936;53.008;6.556;2022-08-21T04:27:43;15.40;45.10
55036;DHT22;40936;53.008;6.556;2022-08-21T04:30:10;14.70;77.80
55036;DHT22;40936;53.008;6.556;2022-08-21T04:32:37;14.60;84.20
55036;DHT22;40936;53.008;6.556;2022-08-21T04:35:07;14.60;73.90
55036;DHT22;40936;53.008;6.556;2022-08-21T04:37:34;14.70;90.20
55036;DHT22;40936;53.008;6.556;2022-08-21T04:39:59;14.60;64.80
55036;DHT22;40936;53.008;6.556;2022-08-21T04:42:27;14.60;81.00
55036;DHT22;40936;53.008;6.556;2022-08-21T04:44:54;14.60;97.90
55036;DHT22;40936;53.008;6.556;2022-08-21T04:47:20;14.50;98.50
55036;DHT22;40936;53.008;6.556;2022-08-21T04:49:47;14.70;99.90
55036;DHT22;40936;53.008;6.556;2022-08-21T04:52:15;14.70;44.50
55036;DHT22;40936;53.008;6.556;2022-08-21T04:54:43;14.70;48.30
55036;DHT22;40936;53.008;6.556;2022-08-21T04:57:10;14.70;62.10
55036;DHT22;40936;53.008;6.556;2022-08-21T04:59:39;14.70;51.50
55036;DHT22;40936;53.008;6.556;2022-08-21T05:02:07;14.70;6.60
55036;DHT22;40936;53.008;6.556;2022-08-21T05:04:34;14.70;40.30
55036;DHT22;40936;53.008;6.556;2022-08-21T05:07:05;14.80;99.90
55036;DHT22;40936;53.008;6.556;2022-08-21T05:09:32;14.80;61.30
55036;DHT22;40936;53.008;6.556;2022-08-21T05:12:01;14.90;93.70
55036;DHT22;40936;53.008;6.556;2022-08-21T05:14:27;14.80;99.90
55036;DHT22;40936;53.008;6.556;2022-08-21T05:16:53;14.80;99.90
55036;DHT22;40936;53.008;6.556;2022-08-21T05:19:19;14.80;99.90
55036;DHT22;40936;53.008;6.556;2022-08-21T05:21:45;14.90;99.90
55036;DHT22;40936;53.008;6.556;2022-08-21T05:24:13;14.90;99.90
55036;DHT22;40936;53.008;6.556;2022-08-21T05:26:39;15.00;99.90
55036;DHT22;40936;53.008;6.556;2022-08-21T05:29:06;15.00;99.90
55036;DHT22;40936;53.008;6.556;2022-08-21T05:31:31;15.00;99.90
55036;DHT22;40936;53.008;6.556;2022-08-21T05:33:57;15.10;99.90
55036;DHT22;40936;53.008;6.556;2022-08-21T05:36:23;15.10;99.90
55036;DHT22;40936;53.008;6.556;2022-08-21T05:38:49;15.20;99.90
55036;DHT22;40936;53.008;6.556;2022-08-21T05:41:15;15.20;99.90
55036;DHT22;40936;53.008;6.556;2022-08-21T05:43:41;15.20;99.90
55036;DHT22;40936;53.008;6.556;2022-08-21T05:46:07;15.30;99.90
55036;DHT22;40936;53.008;6.556;2022-08-21T05:48:34;15.30;99.90
55036;DHT22;40936;53.008;6.556;2022-08-21T05:51:09;15.30;99.90
55036;DHT22;40936;53.008;6.556;2022-08-21T05:53:36;15.30;99.90
55036;DHT22;40936;53.008;6.556;2022-08-21T05:56:02;15.40;99.90
55036;DHT22;40936;53.008;6.556;2022-08-21T05:58:30;15.50;99.90
55036;DHT22;40936;53.008;6.556;2022-08-21T06:00:56;15.40;99.90
55036;DHT22;40936;53.008;6.556;2022-08-21T06:03:27;15.50;99.90
55036;DHT22;40936;53.008;6.556;2022-08-21T06:05:54;15.50;99.90
55036;DHT22;40936;53.008;6.556;2022-08-21T06:08:21;15.70;99.90
55036;DHT22;40936;53.008;6.556;2022-08-21T06:10:49;15.70;99.90
55036;DHT22;40936;53.008;6.556;2022-08-21T06:13:17;15.70;99.90
55036;DHT22;40936;53.008;6.556;2022-08-21T06:15:43;15.80;99.90
55036;DHT22;40936;53.008;6.556;2022-08-21T06:18:09;15.90;99.90
55036;DHT22;40936;53.008;6.556;2022-08-21T06:20:35;15.90;99.90
55036;DHT22;40936;53.008;6.556;2022-08-21T06:23:01;15.90;99.90
55036;DHT22;40936;53.008;6.556;2022-08-21T06:25:27;16.10;99.90
55036;DHT22;40936;53.008;6.556;2022-08-21T06:27:53;16.20;99.90
55036;DHT22;40936;53.008;6.556;2022-08-21T06:30:19;16.20;99.90
55036;DHT22;40936;53.008;6.556;2022-08-21T06:32:44;16.30;99.90
55036;DHT22;40936;53.008;6.556;2022-08-21T06:35:10;16.40;99.90
55036;DHT22;40936;53.008;6.556;2022-08-21T06:37:36;16.50;99.90
55036;DHT22;40936;53.008;6.556;2022-08-21T06:40:04;16.70;99.90
55036;DHT22;40936;53.008;6.556;2022-08-21T06:42:31;16.80;99.90
55036;DHT22;40936;53.008;6.556;2022-08-21T06:44:57;16.80;99.90
55036;DHT22;40936;53.008;6.556;2022-08-21T06:47:22;16.90;99.90
55036;DHT22;40936;53.008;6.556;2022-08-21T06:49:48;16.90;99.90
55036;DHT22;40936;53.008;6.556;2022-08-21T06:52:14;17.00;99.90
55036;DHT22;40936;53.008;6.556;2022-08-21T06:54:41;17.10;99.90
55036;DHT22;40936;53.008;6.556;2022-08-21T06:57:06;17.30;99.90
55036;DHT22;40936;53.008;6.556;2022-08-21T06:59:32;17.40;99.90
55036;DHT22;40936;53.008;6.556;2022-08-21T07:01:59;17.50;99.90
55036;DHT22;40936;53.008;6.556;2022-08-21T07:04:25;17.50;99.90
55036;DHT22;40936;53.008;6.556;2022-08-21T07:06:51;17.70;99.90
55036;DHT22;40936;53.008;6.556;2022-08-21T07:09:17;17.80;91.20
55036;DHT22;40936;53.008;6.556;2022-08-21T07:11:44;17.90;46.20
55036;DHT22;40936;53.008;6.556;2022-08-21T07:14:12;18.00;7.50
55036;DHT22;40936;53.008;6.556;2022-08-21T07:16:37;18.00;1.00
55036;DHT22;40936;53.008;6.556;2022-08-21T07:19:03;18.10;1.00
55036;DHT22;40936;53.008;6.556;2022-08-21T07:21:29;18.20;1.00
55036;DHT22;40936;53.008;6.556;2022-08-21T07:23:54;18.30;1.00
55036;DHT22;40936;53.008;6.556;2022-08-21T07:26:21;18.50;1.00
55036;DHT22;40936;53.008;6.556;2022-08-21T07:28:48;18.50;1.00
55036;DHT22;40936;53.008;6.556;2022-08-21T07:31:17;18.80;1.00
55036;DHT22;40936;53.008;6.556;2022-08-21T07:33:43;20.10;99.90
55036;DHT22;40936;53.008;6.556;2022-08-21T07:36:10;21.20;99.90
55036;DHT22;40936;53.008;6.556;2022-08-21T07:38:36;22.20;99.90
55036;DHT22;40936;53.008;6.556;2022-08-21T07:41:09;23.00;99.90
55036;DHT22;40936;53.008;6.556;2022-08-21T07:43:37;23.70;99.90
55036;DHT22;40936;53.008;6.556;2022-08-21T07:46:03;24.60;77.80
55036;DHT22;40936;53.008;6.556;2022-08-21T07:48:29;25.80;82.10
55036;DHT22;40936;53.008;6.556;2022-08-21T07:50:54;26.70;23.90
55036;DHT22;40936;53.008;6.556;2022-08-21T07:53:20;26.70;1.00
55036;DHT22;40936;53.008;6.556;2022-08-21T07:55:46;26.60;1.00
55036;DHT22;40936;53.008;6.556;2022-08-21T07:58:12;26.70;1.00
55036;DHT22;40936;53.008;6.556;2022-08-21T08:00:39;27.20;1.00
55036;DHT22;40936;53.008;6.556;2022-08-21T08:03:04;27.50;1.00
55036;DHT22;40936;53.008;6.556;2022-08-21T08:05:31;27.40;1.00
55036;DHT22;40936;53.008;6.556;2022-08-21T08:07:57;26.70;1.00
55036;DHT22;40936;53.008;6.556;2022-08-21T08:10:24;26.80;1.00
55036;DHT22;40936;53.008;6.556;2022-08-21T08:12:51;27.50;1.00
55036;DHT22;40936;53.008;6.556;2022-08-21T08:15:22;28.20;1.00
55036;DHT22;40936;53.008;6.556;2022-08-21T08:17:48;27.50;1.00
55036;DHT22;40936;53.008;6.556;2022-08-21T08:20:15;27.10;1.00
55036;DHT22;40936;53.008;6.556;2022-08-21T08:22:42;26.90;1.00
55036;DHT22;40936;53.008;6.556;2022-08-21T08:25:09;26.40;1.00
55036;DHT22;40936;53.008;6.556;2022-08-21T08:27:35;26.30;1.00
55036;DHT22;40936;53.008;6.556;2022-08-21T08:30:01;27.60;1.00
55036;DHT22;40936;53.008;6.556;2022-08-21T08:32:27;28.60;1.00
55036;DHT22;40936;53.008;6.556;2022-08-21T08:34:53;27.70;1.00
55036;DHT22;40936;53.008;6.556;2022-08-21T08:37:19;28.80;1.00
55036;DHT22;40936;53.008;6.556;2022-08-21T08:39:46;27.80;1.00
55036;DHT22;40936;53.008;6.556;2022-08-21T08:44:48;28.50;1.00
55036;DHT22;40936;53.008;6.556;2022-08-21T08:47:17;27.90;1.00
55036;DHT22;40936;53.008;6.556;2022-08-21T08:49:58;28.60;1.00
55036;DHT22;40936;53.008;6.556;2022-08-21T08:52:35;29.30;1.00
55036;DHT22;40936;53.008;6.556;2022-08-21T08:57:35;28.80;1.00
55036;DHT22;40936;53.008;6.556;2022-08-21T09:00:07;29.20;1.00
55036;DHT22;40936;53.008;6.556;2022-08-21T09:02:34;29.10;1.00
55036;DHT22;40936;53.008;6.556;2022-08-21T09:05:01;29.70;1.00
55036;DHT22;40936;53.008;6.556;2022-08-21T09:07:45;30.00;1.00
55036;DHT22;40936;53.008;6.556;2022-08-21T09:10:38;30.70;1.00
55036;DHT22;40936;53.008;6.556;2022-08-21T09:15:48;32.10;1.00
55036;DHT22;40936;53.008;6.556;2022-08-21T09:26:19;32.60;1.00
55036;DHT22;40936;53.008;6.556;2022-08-21T09:28:46;33.50;1.00
55036;DHT22;40936;53.008;6.556;2022-08-21T09:31:32;33.90;1.00
55036;DHT22;40936;53.008;6.556;2022-08-21T09:34:08;34.50;1.00
55036;DHT22;40936;53.008;6.556;2022-08-21T09:36:43;35.40;1.00
55036;DHT22;40936;53.008;6.556;2022-08-21T09:39:10;35.80;1.00
55036;DHT22;40936;53.008;6.556;2022-08-21T09:41:37;35.70;1.00
55036;DHT22;40936;53.008;6.556;2022-08-21T09:44:05;33.50;1.00
55036;DHT22;40936;53.008;6.556;2022-08-21T09:46:31;32.50;1.00
55036;DHT22;40936;53.008;6.556;2022-08-21T09:48:59;30.90;1.00
55036;DHT22;40936;53.008;6.556;2022-08-21T09:51:34;31.10;1.00
55036;DHT22;40936;53.008;6.556;2022-08-21T09:57:05;31.30;1.00
55036;DHT22;40936;53.008;6.556;2022-08-21T10:00:19;31.60;1.00
55036;DHT22;40936;53.008;6.556;2022-08-21T10:02:45;30.30;1.00
55036;DHT22;40936;53.008;6.556;2022-08-21T10:05:24;31.10;1.00
55036;DHT22;40936;53.008;6.556;2022-08-21T10:07:50;30.40;1.00
55036;DHT22;40936;53.008;6.556;2022-08-21T10:10:23;31.00;1.00
55036;DHT22;40936;53.008;6.556;2022-08-21T10:21:21;29.60;1.00
55036;DHT22;40936;53.008;6.556;2022-08-21T10:28:51;28.70;1.00
55036;DHT22;40936;53.008;6.556;2022-08-21T10:40:15;30.60;1.00
55036;DHT22;40936;53.008;6.556;2022-08-21T10:42:58;30.40;1.00
55036;DHT22;40936;53.008;6.556;2022-08-21T10:48:27;31.20;1.00
55036;DHT22;40936;53.008;6.556;2022-08-21T10:51:04;32.60;1.00
55036;DHT22;40936;53.008;6.556;2022-08-21T10:53:55;32.50;1.00
55036;DHT22;40936;53.008;6.556;2022-08-21T10:56:28;30.60;1.00
55036;DHT22;40936;53.008;6.556;2022-08-21T10:59:22;29.60;1.00
55036;DHT22;40936;53.008;6.556;2022-08-21T11:01:56;29.40;1.00
55036;DHT22;40936;53.008;6.556;2022-08-21T11:04:34;30.10;1.00
55036;DHT22;40936;53.008;6.556;2022-08-21T11:07:07;31.80;1.00
55036;DHT22;40936;53.008;6.556;2022-08-21T11:09:37;32.40;99.90
55036;DHT22;40936;53.008;6.556;2022-08-21T11:14:48;33.70;99.90
55036;DHT22;40936;53.008;6.556;2022-08-21T11:17:22;34.20;99.90
55036;DHT22;40936;53.008;6.556;2022-08-21T11:22:43;34.00;99.90
55036;DHT22;40936;53.008;6.556;2022-08-21T11:25:23;33.20;99.90
55036;DHT22;40936;53.008;6.556;2022-08-21T11:27:56;32.10;99.90
55036;DHT22;40936;53.008;6.556;2022-08-21T11:30:27;30.80;99.90
55036;DHT22;40936;53.008;6.556;2022-08-21T11:36:02;28.90;99.90
55036;DHT22;40936;53.008;6.556;2022-08-21T11:38:34;28.80;1.00
55036;DHT22;40936;53.008;6.556;2022-08-21T11:51:46;28.70;1.00
55036;DHT22;40936;53.008;6.556;2022-08-21T11:54:31;28.20;1.00
55036;DHT22;40936;53.008;6.556;2022-08-21T11:57:18;27.90;1.00
55036;DHT22;40936;53.008;6.556;2022-08-21T11:59:51;27.60;1.00
55036;DHT22;40936;53.008;6.556;2022-08-21T12:02:23;27.20;1.00
55036;DHT22;40936;53.008;6.556;2022-08-21T12:04:55;27.20;1.00
55036;DHT22;40936;53.008;6.556;2022-08-21T12:07:40;28.50;1.00
55036;DHT22;40936;53.008;6.556;2022-08-21T12:10:17;29.60;1.00
55036;DHT22;40936;53.008;6.556;2022-08-21T12:12:46;29.40;1.00
55036;DHT22;40936;53.008;6.556;2022-08-21T12:17:40;28.50;1.00
55036;DHT22;40936;53.008;6.556;2022-08-21T12:20:16;28.20;1.00
55036;DHT22;40936;53.008;6.556;2022-08-21T12:23:33;28.00;1.00
55036;DHT22;40936;53.008;6.556;2022-08-21T12:25:44;27.80;1.00
55036;DHT22;40936;53.008;6.556;2022-08-21T12:28:22;27.60;1.00
55036;DHT22;40936;53.008;6.556;2022-08-21T12:30:49;27.40;1.00
55036;DHT22;40936;53.008;6.556;2022-08-21T12:33:37;26.90;1.00
55036;DHT22;40936;53.008;6.556;2022-08-21T12:36:10;27.00;1.00
55036;DHT22;40936;53.008;6.556;2022-08-21T12:41:26;26.70;1.00
55036;DHT22;40936;53.008;6.556;2022-08-21T12:44:07;26.40;1.00
55036;DHT22;40936;53.008;6.556;2022-08-21T12:47:01;26.20;1.00
55036;DHT22;40936;53.008;6.556;2022-08-21T12:49:35;26.00;1.00
55036;DHT22;40936;53.008;6.556;2022-08-21T12:52:22;25.80;1.00
55036;DHT22;40936;53.008;6.556;2022-08-21T12:54:48;25.60;1.00
55036;DHT22;40936;53.008;6.556;2022-08-21T12:57:25;25.30;1.00
55036;DHT22;40936;53.008;6.556;2022-08-21T12:59:59;25.20;1.00
55036;DHT22;40936;53.008;6.556;2022-08-21T13:02:33;24.90;1.00
55036;DHT22;40936;53.008;6.556;2022-08-21T13:05:06;24.90;1.00
55036;DHT22;40936;53.008;6.556;2022-08-21T13:07:35;25.00;1.00
55036;DHT22;40936;53.008;6.556;2022-08-21T13:10:23;25.20;1.00
55036;DHT22;40936;53.008;6.556;2022-08-21T13:12:50;25.50;1.00
55036;DHT22;40936;53.008;6.556;2022-08-21T13:15:30;25.80;1.00
55036;DHT22;40936;53.008;6.556;2022-08-21T13:17:56;26.00;1.00
55036;DHT22;40936;53.008;6.556;2022-08-21T13:20:33;26.20;1.00
55036;DHT22;40936;53.008;6.556;2022-08-21T13:23:02;26.30;1.00
55036;DHT22;40936;53.008;6.556;2022-08-21T13:25:34;26.40;1.00
55036;DHT22;40936;53.008;6.556;2022-08-21T13:28:09;26.30;1.00
55036;DHT22;40936;53.008;6.556;2022-08-21T13:30:40;26.20;1.00
55036;DHT22;40936;53.008;6.556;2022-08-21T13:33:07;26.20;1.00
55036;DHT22;40936;53.008;6.556;2022-08-21T13:38:13;26.40;1.00
55036;DHT22;40936;53.008;6.556;2022-08-21T13:40:49;26.50;1.00
55036;DHT22;40936;53.008;6.556;2022-08-21T13:43:18;26.70;1.00
55036;DHT22;40936;53.008;6.556;2022-08-21T13:45:51;26.80;1.00
55036;DHT22;40936;53.008;6.556;2022-08-21T13:48:18;27.00;1.00
55036;DHT22;40936;53.008;6.556;2022-08-21T13:50:45;27.10;1.00
55036;DHT22;40936;53.008;6.556;2022-08-21T13:53:32;27.00;1.00
55036;DHT22;40936;53.008;6.556;2022-08-21T13:55:59;27.00;1.00
55036;DHT22;40936;53.008;6.556;2022-08-21T13:58:32;26.70;1.00
55036;DHT22;40936;53.008;6.556;2022-08-21T14:01:00;26.60;1.00
55036;DHT22;40936;53.008;6.556;2022-08-21T14:03:41;26.40;1.00
55036;DHT22;40936;53.008;6.556;2022-08-21T14:06:20;26.10;1.00
55036;DHT22;40936;53.008;6.556;2022-08-21T14:08:50;25.90;1.00
55036;DHT22;40936;53.008;6.556;2022-08-21T14:11:17;25.80;1.00
55036;DHT22;40936;53.008;6.556;2022-08-21T14:13:44;25.70;1.00
55036;DHT22;40936;53.008;6.556;2022-08-21T14:16:17;25.60;1.00
55036;DHT22;40936;53.008;6.556;2022-08-21T14:21:35;25.50;1.00
55036;DHT22;40936;53.008;6.556;2022-08-21T14:24:24;25.30;1.00
55036;DHT22;40936;53.008;6.556;2022-08-21T14:26:56;25.30;1.00
55036;DHT22;40936;53.008;6.556;2022-08-21T14:29:25;25.20;1.00
55036;DHT22;40936;53.008;6.556;2022-08-21T14:31:56;25.10;1.00
55036;DHT22;40936;53.008;6.556;2022-08-21T14:34:28;25.10;1.00
55036;DHT22;40936;53.008;6.556;2022-08-21T14:36:55;25.00;1.00
55036;DHT22;40936;53.008;6.556;2022-08-21T14:39:21;25.00;1.00
55036;DHT22;40936;53.008;6.556;2022-08-21T14:41:48;25.00;1.00
55036;DHT22;40936;53.008;6.556;2022-08-21T14:44:16;25.00;1.00
55036;DHT22;40936;53.008;6.556;2022-08-21T14:46:42;25.10;1.00
55036;DHT22;40936;53.008;6.556;2022-08-21T14:49:08;25.10;1.00
55036;DHT22;40936;53.008;6.556;2022-08-21T14:51:34;25.10;1.00
55036;DHT22;40936;53.008;6.556;2022-08-21T14:53:59;25.10;1.00
55036;DHT22;40936;53.008;6.556;2022-08-21T14:56:25;25.30;1.00
55036;DHT22;40936;53.008;6.556;2022-08-21T14:58:52;25.30;1.00
55036;DHT22;40936;53.008;6.556;2022-08-21T15:01:20;25.30;1.00
55036;DHT22;40936;53.008;6.556;2022-08-21T15:03:48;25.40;1.00
55036;DHT22;40936;53.008;6.556;2022-08-21T15:06:15;25.40;1.00
55036;DHT22;40936;53.008;6.556;2022-08-21T15:08:41;25.50;1.00
55036;DHT22;40936;53.008;6.556;2022-08-21T15:11:09;25.40;1.00
55036;DHT22;40936;53.008;6.556;2022-08-21T15:13:37;25.40;1.00
55036;DHT22;40936;53.008;6.556;2022-08-21T15:16:03;25.40;1.00
55036;DHT22;40936;53.008;6.556;2022-08-21T15:18:30;25.40;1.00
55036;DHT22;40936;53.008;6.556;2022-08-21T15:20:56;25.40;1.00
55036;DHT22;40936;53.008;6.556;2022-08-21T15:23:22;25.30;1.00
55036;DHT22;40936;53.008;6.556;2022-08-21T15:25:49;25.30;1.00
55036;DHT22;40936;53.008;6.556;2022-08-21T15:28:15;25.30;1.00
55036;DHT22;40936;53.008;6.556;2022-08-21T15:30:42;25.40;1.00
55036;DHT22;40936;53.008;6.556;2022-08-21T15:33:09;25.40;1.00
55036;DHT22;40936;53.008;6.556;2022-08-21T15:35:35;25.40;1.00
55036;DHT22;40936;53.008;6.556;2022-08-21T15:38:01;25.40;1.00
55036;DHT22;40936;53.008;6.556;2022-08-21T15:40:27;25.30;1.00
55036;DHT22;40936;53.008;6.556;2022-08-21T15:42:58;25.10;1.00
55036;DHT22;40936;53.008;6.556;2022-08-21T15:45:24;25.00;1.00
55036;DHT22;40936;53.008;6.556;2022-08-21T15:47:50;24.90;1.00
55036;DHT22;40936;53.008;6.556;2022-08-21T15:50:16;24.90;1.00
55036;DHT22;40936;53.008;6.556;2022-08-21T15:52:42;24.90;1.00
55036;DHT22;40936;53.008;6.556;2022-08-21T15:55:09;25.00;1.00
55036;DHT22;40936;53.008;6.556;2022-08-21T15:57:36;25.20;1.00
55036;DHT22;40936;53.008;6.556;2022-08-21T16:00:15;25.40;1.00
55036;DHT22;40936;53.008;6.556;2022-08-21T16:02:45;25.40;1.00
55036;DHT22;40936;53.008;6.556;2022-08-21T16:05:12;25.40;1.00
55036;DHT22;40936;53.008;6.556;2022-08-21T16:07:42;25.30;1.00
55036;DHT22;40936;53.008;6.556;2022-08-21T16:10:09;25.20;1.00
55036;DHT22;40936;53.008;6.556;2022-08-21T16:12:37;25.20;1.00
55036;DHT22;40936;53.008;6.556;2022-08-21T16:15:06;25.20;1.00
55036;DHT22;40936;53.008;6.556;2022-08-21T16:17:34;25.10;1.00
55036;DHT22;40936;53.008;6.556;2022-08-21T16:20:01;25.20;1.00
55036;DHT22;40936;53.008;6.556;2022-08-21T16:22:27;25.20;1.00
55036;DHT22;40936;53.008;6.556;2022-08-21T16:24:53;25.10;1.00
55036;DHT22;40936;53.008;6.556;2022-08-21T16:27:18;25.10;1.00
55036;DHT22;40936;53.008;6.556;2022-08-21T16:29:45;25.10;1.00
55036;DHT22;40936;53.008;6.556;2022-08-21T16:32:12;25.00;1.00
55036;DHT22;40936;53.008;6.556;2022-08-21T16:34:44;24.90;1.00
55036;DHT22;40936;53.008;6.556;2022-08-21T16:37:10;25.00;1.00
55036;DHT22;40936;53.008;6.556;2022-08-21T16:39:36;24.90;1.00
55036;DHT22;40936;53.008;6.556;2022-08-21T16:42:02;24.90;1.00
55036;DHT22;40936;53.008;6.556;2022-08-21T16:44:27;24.90;1.00
55036;DHT22;40936;53.008;6.556;2022-08-21T16:46:53;24.90;1.00
55036;DHT22;40936;53.008;6.556;2022-08-21T16:49:19;24.80;1.00
55036;DHT22;40936;53.008;6.556;2022-08-21T16:51:45;24.80;1.00
55036;DHT22;40936;53.008;6.556;2022-08-21T16:54:11;24.60;1.00
55036;DHT22;40936;53.008;6.556;2022-08-21T16:56:38;24.60;1.00
55036;DHT22;40936;53.008;6.556;2022-08-21T16:59:04;24.50;1.00
55036;DHT22;40936;53.008;6.556;2022-08-21T17:01:31;24.40;1.00
55036;DHT22;40936;53.008;6.556;2022-08-21T17:03:58;24.20;1.00
55036;DHT22;40936;53.008;6.556;2022-08-21T17:06:24;24.10;1.00